createdAt,value
2018-07-24T00:04:58.931Z,0
2018-07-24T00:15:13.384Z,0
2018-07-24T00:25:27.339Z,0
2018-07-24T00:35:41.060Z,0
2018-07-24T00:45:55.387Z,0
2018-07-24T00:56:10.316Z,0
2018-07-24T01:06:25.685Z,0
2018-07-24T01:16:40.470Z,0
2018-07-24T01:26:55.846Z,0
2018-07-24T01:37:11.127Z,0
2018-07-24T01:47:26.618Z,0
2018-07-24T01:57:40.793Z,0
2018-07-24T02:07:55.408Z,0
2018-07-24T02:18:10.168Z,0
2018-07-24T02:28:23.889Z,0
2018-07-24T02:38:39.317Z,0
2018-07-24T02:48:53.153Z,0
2018-07-24T02:59:07.753Z,0
2018-07-24T03:09:22.385Z,0
2018-07-24T03:19:36.566Z,0
2018-07-24T03:29:51.807Z,5
2018-07-24T03:40:06.472Z,10
2018-07-24T03:50:20.894Z,20
2018-07-24T04:00:36.032Z,35
2018-07-24T04:10:50.175Z,55
2018-07-24T04:21:04.993Z,70
2018-07-24T04:31:19.466Z,90
2018-07-24T04:41:33.571Z,105
2018-07-24T04:51:47.405Z,120
2018-07-24T05:02:02.128Z,135
2018-07-24T05:12:17.839Z,150
2018-07-24T05:22:32.508Z,170
2018-07-24T05:32:47.725Z,180
2018-07-24T05:43:01.638Z,195
2018-07-24T05:53:15.705Z,280
2018-07-24T06:03:30.936Z,220
2018-07-24T06:13:45.309Z,230
2018-07-24T06:23:59.555Z,785
2018-07-24T06:34:13.349Z,835
2018-07-24T06:44:27.899Z,840
2018-07-24T06:54:42.796Z,855
2018-07-24T07:04:58.322Z,730
2018-07-24T07:15:14.053Z,785
2018-07-24T07:25:29.106Z,1660
2018-07-24T07:35:44.969Z,840
2018-07-24T07:45:58.896Z,1150
2018-07-24T07:56:14.215Z,1230
2018-07-24T08:06:29.006Z,1090
2018-07-24T08:16:44.617Z,1220
2018-07-24T08:27:00.335Z,1360
2018-07-24T08:37:14.481Z,1510
2018-07-24T08:47:30.034Z,1560
2018-07-24T08:57:44.337Z,1845
2018-07-24T09:07:58.379Z,1630
2018-07-24T09:18:14.081Z,1720
2018-07-24T09:28:28.041Z,1485
2018-07-24T09:38:43.037Z,1760
2018-07-24T09:48:57.935Z,1670
2018-07-24T09:59:12.092Z,1805
2018-07-24T10:09:27.618Z,1715
2018-07-24T10:19:42.720Z,1855
2018-07-24T10:29:56.589Z,1885
2018-07-24T10:40:11.879Z,1930
2018-07-24T10:50:26.349Z,1935
2018-07-24T11:00:41.273Z,1860
2018-07-24T11:10:57.108Z,2055
2018-07-24T11:21:12.984Z,2015
2018-07-24T11:31:27.874Z,1895
2018-07-24T11:41:42.853Z,1895
2018-07-24T11:51:58.556Z,1935
2018-07-24T12:02:13.653Z,1955
2018-07-24T12:12:29.322Z,1845
2018-07-24T12:22:43.948Z,1605
2018-07-24T12:32:58.422Z,1750
2018-07-24T12:43:12.735Z,1505
2018-07-24T12:53:27.521Z,1230
2018-07-24T13:03:43.346Z,1075
2018-07-24T13:13:59.046Z,1040
2018-07-24T13:24:14.254Z,1210
2018-07-24T13:34:28.988Z,3520
2018-07-24T13:44:45.023Z,2380
2018-07-24T13:54:59.686Z,2445
2018-07-24T14:05:14.367Z,2315
2018-07-24T14:15:28.705Z,2380
2018-07-24T14:25:42.891Z,1155
2018-07-24T14:35:57.722Z,1945
2018-07-24T14:46:13.174Z,1815
2018-07-24T14:56:27.821Z,1775
2018-07-24T15:06:42.079Z,1675
2018-07-24T15:16:56.083Z,1400
2018-07-24T15:27:11.162Z,1445
2018-07-24T15:37:25.493Z,1340
2018-07-24T15:47:40.591Z,1285
2018-07-24T15:57:54.696Z,1255
2018-07-24T16:08:08.933Z,1140
2018-07-24T16:18:22.930Z,1030
2018-07-24T16:28:38.647Z,995
2018-07-24T16:38:53.123Z,940
2018-07-24T16:49:07.677Z,765
2018-07-24T16:59:23.300Z,425
2018-07-24T17:09:37.502Z,360
2018-07-24T17:19:53.436Z,340
2018-07-24T17:30:07.220Z,310
2018-07-24T17:40:21.605Z,280
2018-07-24T17:50:36.606Z,250
2018-07-24T18:00:50.912Z,190
2018-07-24T18:11:05.003Z,170
2018-07-24T18:21:20.888Z,145
2018-07-24T18:31:36.227Z,120
2018-07-24T18:41:51.658Z,100
2018-07-24T18:52:06.824Z,80
2018-07-24T19:02:22.458Z,60
2018-07-24T19:12:38.229Z,40
2018-07-24T19:22:52.475Z,20
2018-07-24T19:33:08.013Z,10
2018-07-24T19:43:23.669Z,0
2018-07-24T19:53:38.853Z,0
2018-07-24T20:03:53.829Z,0
2018-07-24T20:14:09.047Z,0
2018-07-24T20:24:23.874Z,0
2018-07-24T20:34:37.868Z,0
2018-07-24T20:44:52.353Z,0
2018-07-24T20:55:07.051Z,0
2018-07-24T21:05:21.229Z,0
2018-07-24T21:15:36.081Z,0
2018-07-24T21:25:50.847Z,0
2018-07-24T21:36:05.045Z,0
2018-07-24T21:46:19.902Z,0
2018-07-24T21:56:35.480Z,0
2018-07-24T22:06:50.798Z,0
2018-07-24T22:17:05.096Z,0
2018-07-24T22:27:20.636Z,0
2018-07-24T22:37:35.106Z,0
2018-07-24T22:47:49.363Z,0
2018-07-24T22:58:04.275Z,0
2018-07-24T23:08:20.142Z,0
2018-07-24T23:18:35.669Z,0
2018-07-24T23:28:49.673Z,0
2018-07-24T23:39:04.386Z,0
2018-07-24T23:49:19.041Z,0
2018-07-24T23:59:33.796Z,0
